Barbados Meteorological Services
Auto gathered TAF list
Powered by Apparatus software
For Flight AA1089
Contact Number 1-(246)-535-0021/2/3/4/5/6
WEB: http://www.barbadosweather.org

**********************************************

2019/01/22 18:58
TAF TLPL 221700Z 2218/2318 07020KT 9999 SCT026 PROB30
TEMPO 2306/2318 SHRA


**********************************************
2019/01/22 18:48
TAF TJSJ 221745Z 2218/2318 08015G22KT P6SM VCSH SCT025 SCT050
FM222200 07012KT P6SM SCT030
FM231400 07019G25KT P6SM SCT025


**********************************************
2019/01/22 18:09
TAF TFFR 221600Z 2218/2318 10012KT 9999 SCT025 SCT045 PROB30
TEMPO 2218/2222 10015G26KT PROB30
TEMPO 2218/2309 4000 SHRA SCT018TCU


**********************************************
2019/01/22 18:13
TAF TBPB 221700Z 2218/2318 09018KT 9999 SCT020= TAF TVSA 221700Z 2218/2318 07014KT 9999 SCT020 PROB30
TEMPO 2218/2224 BKN014


**********************************************
2019/01/22 12:45
TAF TAF TAPA 221700Z 2212/2312 07012KT 9999 SCT021 PROB30
TEMPO 2218/2224 SHRA


**********************************************
2019/01/22 18:25
TAF MYNN 221700Z 2218/2318 08018G28KT 9999 BKN035 PROB40
TEMPO 2300/2312 SCT020 SCT040


**********************************************
2019/01/22 12:31
TAF MTPP 221159Z 2212/2312 12005KT 8000 FEW020
BECMG 2216/2220 10015G25KT
FM230400 VRB02KT 7000 NSC


**********************************************
2019/01/22 18:56
TAF MDSD 221600Z 2218/2318 08010KT 9999 SCT020 SCT080 PROB30 2219/2223 8000 -RA BKN016 BKN070
BECMG 2302/2304 02005KT SCT018


**********************************************
2019/01/22 12:27
TAF KSFB 221125Z 2212/2312 05004KT P6SM SCT040
FM221600 09014G21KT P6SM SCT040 BKN060
FM230000 12007KT P6SM BKN060


**********************************************
2019/01/22 15:57
TAF
AMD KPHL 221450Z 2215/2318 32010KT P6SM SKC
FM221800 26007KT P6SM SCT200
FM222100 22005KT P6SM SCT200
FM230000 18005KT P6SM BKN200
FM231500 21008KT P6SM SCT040 OVC150


**********************************************
2019/01/22 18:46
TAF KPBI 221737Z 2218/2318 10020G30KT P6SM SCT040
FM230000 10020KT P6SM SCT035


**********************************************
2019/01/22 18:45
TAF KOPF 221737Z 2218/2318 09020G30KT P6SM SCT035 BKN060
FM230000 11020KT P6SM SCT035


**********************************************
2019/01/22 18:45
TAF KMIA 221737Z 2218/2324 09020G30KT P6SM SCT035 BKN060
FM230000 11020KT P6SM SCT035
FM231800 13015G25KT P6SM SCT035 BKN060


**********************************************
2019/01/22 15:30
TAF
AMD KMCO 221528Z 2215/2318 09014G21KT P6SM SCT040 BKN050
FM230000 12006KT P6SM BKN060
FM231500 15015G22KT P6SM BKN050


**********************************************
2019/01/22 18:46
TAF KJFK 221739Z 2218/2324 30011KT P6SM FEW250
FM221900 28008KT P6SM FEW250
FM222200 VRB05KT P6SM SCT250
FM230700 20007KT P6SM SCT100 BKN250
FM231300 20010KT P6SM SCT040 OVC100
FM231600 21014KT P6SM BKN040 OVC080
FM232100 20013KT P6SM VCSH SCT020 OVC040


**********************************************
2019/01/22 18:51
TAF KJAX 221747Z 2218/2318 10010G15KT P6SM SCT040 BKN060
FM222300 09009KT P6SM FEW030 BKN060
FM231500 16010G15KT P6SM SCT030 BKN060


**********************************************
2019/01/22 18:46
TAF KFLL 221737Z 2218/2324 08020G30KT P6SM SCT035 BKN060
FM230000 11020G28KT P6SM SCT035
FM231800 13015G25KT P6SM SCT035 BKN060


**********************************************
2019/01/22 18:45
TAF KEWR 221739Z 2218/2324 29007KT P6SM FEW250
FM222200 VRB05KT P6SM SCT250
FM230700 21006KT P6SM SCT100 BKN250
FM231200 21008KT P6SM SCT040 OVC100
FM231500 20012KT P6SM BKN040 OVC080
FM232000 21011KT P6SM VCSH SCT020 OVC040


**********************************************
2019/01/22 18:57
TAF KCLT 221753Z 2218/2324 11004KT P6SM FEW250
FM230200 11003KT P6SM BKN040
FM230800 06004KT P6SM OVC023 PROB30 2308/2313 4SM -FZRA OVC015
FM231300 07004KT 6SM -RA BR OVC007
FM231500 10003KT 4SM -SHRA BR OVC004
FM231800 17003KT 5SM -SHRA BR OVC009


**********************************************
2019/01/22 18:42
TAF KATL 221739Z 2218/2324 10013G20KT P6SM BKN025 OVC040
TEMPO 2218/2222 FEW025 BKN035
FM230100 11011G17KT P6SM -RA OVC015
FM230500 10011G16KT P6SM -RA OVC008
FM231000 11012KT 4SM -RADZ OVC006
FM231700 16015KT P6SM VCSH OVC010


**********************************************